createdAt,value
2018-06-12T00:00:12.590Z,41.7
2018-06-12T00:01:02.641Z,41.7
2018-06-12T00:01:51.565Z,41.7
2018-06-12T00:02:41.941Z,41.7
2018-06-12T00:03:32.033Z,41.6
2018-06-12T00:04:22.582Z,41.6
2018-06-12T00:05:12.916Z,41.6
2018-06-12T00:06:01.873Z,41.6
2018-06-12T00:06:52.888Z,41.6
2018-06-12T00:07:42.554Z,41.6
2018-06-12T00:08:32.652Z,41.6
2018-06-12T00:09:22.687Z,41.6
2018-06-12T00:10:12.754Z,41.6
2018-06-12T00:11:02.838Z,41.6
2018-06-12T00:11:52.887Z,41.6
2018-06-12T00:12:43.503Z,41.6
2018-06-12T00:13:33.348Z,41.6
2018-06-12T00:14:23.672Z,41.5
2018-06-12T00:15:13.147Z,41.6
2018-06-12T00:16:02.939Z,41.6
2018-06-12T00:16:52.422Z,41.5
2018-06-12T00:17:44.099Z,41.6
2018-06-12T00:18:33.722Z,41.6
2018-06-12T00:19:23.220Z,41.6
2018-06-12T00:20:13.278Z,41.5
2018-06-12T00:21:03.877Z,41.5
2018-06-12T00:21:53.658Z,41.5
2018-06-12T00:22:43.527Z,41.5
2018-06-12T00:23:34.347Z,41.5
2018-06-12T00:24:24.493Z,41.4
2018-06-12T00:25:13.941Z,41.4
2018-06-12T00:26:04.275Z,41.5
2018-06-12T00:26:54.107Z,41.5
2018-06-12T00:27:44.115Z,41.4
2018-06-12T00:28:34.743Z,41.4
2018-06-12T00:29:24.768Z,41.5
2018-06-12T00:30:14.320Z,41.4
2018-06-12T00:31:04.952Z,41.4
2018-06-12T00:31:54.564Z,41.4
2018-06-12T00:32:44.305Z,41.4
2018-06-12T00:33:35.209Z,41.4
2018-06-12T00:34:24.162Z,41.4
2018-06-12T00:35:14.236Z,41.4
2018-06-12T00:36:04.038Z,41.4
2018-06-12T00:36:54.395Z,41.4
2018-06-12T00:37:44.435Z,41.4
2018-06-12T00:38:34.788Z,41.4
2018-06-12T00:39:25.328Z,41.4
2018-06-12T00:40:15.419Z,41.4
2018-06-12T00:41:05.474Z,41.4
2018-06-12T00:41:55.515Z,41.4
2018-06-12T00:42:45.331Z,41.4
2018-06-12T00:43:35.136Z,41.4
2018-06-12T00:44:26.025Z,41.3
2018-06-12T00:45:15.190Z,41.3
2018-06-12T00:46:05.819Z,41.3
2018-06-12T00:46:55.364Z,41.4
2018-06-12T00:47:45.969Z,41.3
2018-06-12T00:48:36.279Z,41.3
2018-06-12T00:49:26.085Z,41.3
2018-06-12T00:50:15.908Z,41.3
2018-06-12T00:51:06.291Z,41.3
2018-06-12T00:51:55.983Z,41.3
2018-06-12T00:52:45.781Z,41.3
2018-06-12T00:53:36.684Z,41.3
2018-06-12T00:54:26.173Z,41.3
2018-06-12T00:55:15.706Z,41.3
2018-06-12T00:56:06.651Z,41.3
2018-06-12T00:56:57.013Z,41.3
2018-06-12T00:57:46.733Z,41.3
2018-06-12T00:58:36.811Z,41.3
2018-06-12T00:59:26.339Z,41.2
2018-06-12T01:00:16.676Z,41.2
2018-06-12T01:01:06.180Z,41.2
2018-06-12T01:01:57.292Z,41.2
2018-06-12T01:02:46.855Z,41.2
2018-06-12T01:03:37.192Z,41.2
2018-06-12T01:04:27.007Z,41.2
2018-06-12T01:05:17.302Z,41.2
2018-06-12T01:06:06.559Z,41.2
2018-06-12T01:06:57.447Z,41.2
2018-06-12T01:07:47.497Z,41.1
2018-06-12T01:08:37.351Z,41.1
2018-06-12T01:09:27.066Z,41.1
2018-06-12T01:10:16.572Z,41.1
2018-06-12T01:11:07.757Z,41.1
2018-06-12T01:11:57.894Z,41.1
2018-06-12T01:12:47.351Z,41.1
2018-06-12T01:13:38.013Z,41.1
2018-06-12T01:14:27.203Z,41.1
2018-06-12T01:15:16.988Z,41.1
2018-06-12T01:16:07.314Z,41.1
2018-06-12T01:16:57.676Z,41.1
2018-06-12T01:18:03.223Z,41.1
2018-06-12T01:18:37.785Z,41.1
2018-06-12T01:19:27.569Z,41.1
2018-06-12T01:20:18.184Z,41.1
2018-06-12T01:21:08.263Z,41.1
2018-06-12T01:21:58.584Z,41
2018-06-12T01:22:48.123Z,41.1
2018-06-12T01:23:39.003Z,41
2018-06-12T01:24:29.140Z,41
2018-06-12T01:25:19.123Z,41.1
2018-06-12T01:26:08.366Z,41
2018-06-12T01:26:58.757Z,41
2018-06-12T01:27:47.641Z,41
2018-06-12T01:28:39.113Z,41
2018-06-12T01:29:29.449Z,40.9
2018-06-12T01:30:18.980Z,40.9
2018-06-12T01:31:08.769Z,41
2018-06-12T01:31:59.161Z,41
2018-06-12T01:32:49.450Z,40.9
2018-06-12T01:33:39.525Z,41
2018-06-12T01:34:29.646Z,40.9
2018-06-12T01:35:19.080Z,40.9
2018-06-12T01:36:08.911Z,40.9
2018-06-12T01:37:00.038Z,40.9
2018-06-12T01:37:50.117Z,40.9
2018-06-12T01:38:39.384Z,40.9
2018-06-12T01:39:29.710Z,40.9
2018-06-12T01:40:19.794Z,40.9
2018-06-12T01:41:09.532Z,40.9
2018-06-12T01:41:59.297Z,40.9
2018-06-12T01:42:49.683Z,40.9
2018-06-12T01:43:40.297Z,40.9
2018-06-12T01:44:29.515Z,40.9
2018-06-12T01:45:19.899Z,40.9
2018-06-12T01:46:10.522Z,40.8
2018-06-12T01:46:59.811Z,40.9
2018-06-12T01:47:49.554Z,40.9
2018-06-12T01:48:39.911Z,40.8
2018-06-12T01:49:29.419Z,40.8
2018-06-12T01:50:19.514Z,40.8
2018-06-12T01:51:10.709Z,40.8
2018-06-12T01:52:00.662Z,40.8
2018-06-12T01:52:50.416Z,40.8
2018-06-12T01:53:40.753Z,40.8
2018-06-12T01:54:31.121Z,40.8
2018-06-12T01:55:20.067Z,40.8
2018-06-12T01:56:11.241Z,40.8
2018-06-12T01:57:00.777Z,40.8
2018-06-12T01:57:50.827Z,40.8
2018-06-12T01:58:41.463Z,40.8
2018-06-12T01:59:31.273Z,40.8
2018-06-12T02:00:20.463Z,40.8
2018-06-12T02:01:11.082Z,40.8
2018-06-12T02:02:01.705Z,40.8
2018-06-12T02:02:51.756Z,40.8
2018-06-12T02:03:41.306Z,40.8
2018-06-12T02:04:30.750Z,40.8
2018-06-12T02:05:21.160Z,40.7
2018-06-12T02:06:12.345Z,40.7
2018-06-12T02:07:02.389Z,40.7
2018-06-12T02:07:52.450Z,40.7
2018-06-12T02:08:42.200Z,40.7
2018-06-12T02:09:32.001Z,40.7
2018-06-12T02:10:22.046Z,40.7
2018-06-12T02:11:11.313Z,40.6
2018-06-12T02:12:01.363Z,40.7
2018-06-12T02:12:52.275Z,40.7
2018-06-12T02:13:42.917Z,40.6
2018-06-12T02:14:32.923Z,40.6
2018-06-12T02:15:21.905Z,40.6
2018-06-12T02:16:12.515Z,40.7
2018-06-12T02:17:02.591Z,40.6
2018-06-12T02:17:52.952Z,40.6
2018-06-12T02:18:43.239Z,40.6
2018-06-12T02:19:32.813Z,40.6
2018-06-12T02:20:22.602Z,40.6
2018-06-12T02:21:13.210Z,40.6
2018-06-12T02:22:03.287Z,40.6
2018-06-12T02:22:52.868Z,40.6
2018-06-12T02:23:42.555Z,40.6
2018-06-12T02:24:33.740Z,40.6
2018-06-12T02:25:23.533Z,40.6
2018-06-12T02:26:13.611Z,40.6
2018-06-12T02:27:03.682Z,40.6
2018-06-12T02:27:53.956Z,40.6
2018-06-12T02:28:44.028Z,40.6
2018-06-12T02:29:34.133Z,40.6
2018-06-12T02:30:24.194Z,40.6
2018-06-12T02:31:14.277Z,40.5
2018-06-12T02:32:03.185Z,40.5
2018-06-12T02:32:54.376Z,40.6
2018-06-12T02:33:43.903Z,40.5
2018-06-12T02:34:34.508Z,40.5
2018-06-12T02:35:24.329Z,40.5
2018-06-12T02:36:13.793Z,40.5
2018-06-12T02:37:04.731Z,40.5
2018-06-12T02:37:54.472Z,40.5
2018-06-12T02:38:44.554Z,40.5
2018-06-12T02:39:34.893Z,40.4
2018-06-12T02:40:24.717Z,40.4
2018-06-12T02:41:15.072Z,40.4
2018-06-12T02:42:04.533Z,40.4
2018-06-12T02:42:54.320Z,40.5
2018-06-12T02:43:45.053Z,40.4
2018-06-12T02:44:35.289Z,40.4
2018-06-12T02:45:24.820Z,40.4
2018-06-12T02:46:14.843Z,40.4
2018-06-12T02:47:04.936Z,40.4
2018-06-12T02:47:54.758Z,40.4
2018-06-12T02:48:45.351Z,40.4
2018-06-12T02:49:35.416Z,40.4
2018-06-12T02:50:25.759Z,40.4
2018-06-12T02:51:15.534Z,40.4
2018-06-12T02:52:05.874Z,40.4
2018-06-12T02:52:55.365Z,40.4
2018-06-12T02:53:45.749Z,40.4
2018-06-12T02:54:35.484Z,40.4
2018-06-12T02:55:25.811Z,40.4
2018-06-12T02:56:15.707Z,40.4
2018-06-12T02:57:06.013Z,40.4
2018-06-12T02:57:55.792Z,40.3
2018-06-12T02:58:46.411Z,40.3
2018-06-12T02:59:36.478Z,40.3
2018-06-12T03:00:26.511Z,40.3
2018-06-12T03:01:16.529Z,40.3
2018-06-12T03:02:06.376Z,40.3
2018-06-12T03:02:56.473Z,40.3
2018-06-12T03:03:45.884Z,40.3
2018-06-12T03:04:36.313Z,40.3
2018-06-12T03:05:26.658Z,40.3
2018-06-12T03:06:16.139Z,40.3
2018-06-12T03:07:06.197Z,40.3
2018-06-12T03:07:56.880Z,40.3
2018-06-12T03:08:47.179Z,40.3
2018-06-12T03:09:36.654Z,40.3
2018-06-12T03:10:27.040Z,40.3
2018-06-12T03:11:17.077Z,40.2
2018-06-12T03:12:07.160Z,40.3
2018-06-12T03:12:56.364Z,40.2
2018-06-12T03:13:47.306Z,40.3
2018-06-12T03:14:37.329Z,40.2
2018-06-12T03:15:27.713Z,40.2
2018-06-12T03:16:17.720Z,40.2
2018-06-12T03:17:07.510Z,40.2
2018-06-12T03:17:57.572Z,40.2
2018-06-12T03:18:47.907Z,40.2
2018-06-12T03:19:37.438Z,40.2
2018-06-12T03:20:26.923Z,40.2
2018-06-12T03:21:17.025Z,40.2
2018-06-12T03:22:07.627Z,40.1
2018-06-12T03:22:57.968Z,40.2
2018-06-12T03:23:47.810Z,40.2
2018-06-12T03:24:38.470Z,40.1
2018-06-12T03:25:28.390Z,40.1
2018-06-12T03:26:18.207Z,40.1
2018-06-12T03:27:08.259Z,40.1
2018-06-12T03:27:58.332Z,40.1
2018-06-12T03:28:48.440Z,40.1
2018-06-12T03:29:37.904Z,40.1
2018-06-12T03:30:27.730Z,40.1
2018-06-12T03:31:18.718Z,40.1
2018-06-12T03:32:08.407Z,40.1
2018-06-12T03:32:59.006Z,40.1
2018-06-12T03:33:48.790Z,40.1
2018-06-12T03:34:38.881Z,40.1
2018-06-12T03:35:28.629Z,40.1
2018-06-12T03:36:18.729Z,40.1
2018-06-12T03:37:09.317Z,40.1
2018-06-12T03:37:59.454Z,40.1
2018-06-12T03:38:49.441Z,40.1
2018-06-12T03:39:39.252Z,40.1
2018-06-12T03:40:29.028Z,40.1
2018-06-12T03:41:19.374Z,40
2018-06-12T03:42:09.180Z,40
2018-06-12T03:42:58.930Z,40
2018-06-12T03:43:49.022Z,40
2018-06-12T03:44:39.937Z,40
2018-06-12T03:45:29.687Z,40
2018-06-12T03:46:19.488Z,40
2018-06-12T03:47:09.242Z,40
2018-06-12T03:47:59.619Z,39.9
2018-06-12T03:48:49.976Z,40
2018-06-12T03:49:39.739Z,40
2018-06-12T03:50:29.777Z,39.9
2018-06-12T03:51:19.851Z,39.9
2018-06-12T03:52:09.956Z,40
2018-06-12T03:52:59.983Z,39.9
2018-06-12T03:53:50.630Z,40
2018-06-12T03:54:39.928Z,39.9
2018-06-12T03:55:30.494Z,39.9
2018-06-12T03:56:20.580Z,39.9
2018-06-12T03:57:10.088Z,39.9
2018-06-12T03:58:00.641Z,39.9
2018-06-12T03:58:50.195Z,39.9
2018-06-12T03:59:40.793Z,39.9
2018-06-12T04:00:30.339Z,39.9
2018-06-12T04:01:21.206Z,39.9
2018-06-12T04:02:10.748Z,39.9
2018-06-12T04:03:01.070Z,39.9
2018-06-12T04:03:50.846Z,39.9
2018-06-12T04:04:40.613Z,39.9
2018-06-12T04:05:30.996Z,39.9
2018-06-12T04:06:20.721Z,39.9
2018-06-12T04:07:10.247Z,39.9
2018-06-12T04:08:01.727Z,39.9
2018-06-12T04:08:51.263Z,39.8
2018-06-12T04:09:41.841Z,39.8
2018-06-12T04:10:31.084Z,39.8
2018-06-12T04:11:21.160Z,39.8
2018-06-12T04:12:11.469Z,39.8
2018-06-12T04:13:01.228Z,39.8
2018-06-12T04:13:51.390Z,39.8
2018-06-12T04:14:42.448Z,39.8
2018-06-12T04:15:30.365Z,39.8
2018-06-12T04:16:22.090Z,39.8
2018-06-12T04:17:12.435Z,39.8
2018-06-12T04:18:01.643Z,39.8
2018-06-12T04:18:50.672Z,39.8
2018-06-12T04:19:42.331Z,39.8
2018-06-12T04:20:32.582Z,39.8
2018-06-12T04:21:22.802Z,39.8
2018-06-12T04:22:11.703Z,39.8
2018-06-12T04:23:02.059Z,39.8
2018-06-12T04:23:51.817Z,39.8
2018-06-12T04:24:42.213Z,39.8
2018-06-12T04:25:32.521Z,39.8
2018-06-12T04:26:22.273Z,39.8
2018-06-12T04:27:12.349Z,39.8
2018-06-12T04:28:02.482Z,39.8
2018-06-12T04:28:51.888Z,39.8
2018-06-12T04:29:42.518Z,39.7
2018-06-12T04:30:33.209Z,39.8
2018-06-12T04:31:23.033Z,39.7
2018-06-12T04:32:12.481Z,39.7
2018-06-12T04:33:03.129Z,39.8
2018-06-12T04:33:53.159Z,39.7
2018-06-12T04:34:43.492Z,39.7
2018-06-12T04:35:32.495Z,39.7
2018-06-12T04:36:23.610Z,39.7
2018-06-12T04:37:13.360Z,39.7
2018-06-12T04:38:03.450Z,39.7
2018-06-12T04:38:53.535Z,39.7
2018-06-12T04:39:44.192Z,39.6
2018-06-12T04:40:33.388Z,39.7
2018-06-12T04:41:23.772Z,39.6
2018-06-12T04:42:13.778Z,39.7
2018-06-12T04:43:03.258Z,39.6
2018-06-12T04:43:54.201Z,39.6
2018-06-12T04:44:44.621Z,39.7
2018-06-12T04:45:33.475Z,39.6
2018-06-12T04:46:24.183Z,39.6
2018-06-12T04:47:13.967Z,39.6
2018-06-12T04:48:03.202Z,39.6
2018-06-12T04:48:54.606Z,39.6
2018-06-12T04:49:44.629Z,39.6
2018-06-12T04:50:34.976Z,39.6
2018-06-12T04:51:24.240Z,39.6
2018-06-12T04:52:14.532Z,39.6
2018-06-12T04:53:04.374Z,39.6
2018-06-12T04:53:55.015Z,39.6
2018-06-12T04:54:45.296Z,39.6
2018-06-12T04:55:34.060Z,39.6
2018-06-12T04:56:24.392Z,39.6
2018-06-12T04:57:14.977Z,39.6
2018-06-12T04:58:05.039Z,39.6
2018-06-12T04:58:54.509Z,39.6
2018-06-12T04:59:45.779Z,39.6
2018-06-12T05:00:35.750Z,39.6
2018-06-12T05:01:25.817Z,39.5
2018-06-12T05:02:15.697Z,39.6
2018-06-12T05:03:05.359Z,39.5
2018-06-12T05:03:54.904Z,39.5
2018-06-12T05:04:44.955Z,39.5
2018-06-12T05:05:35.869Z,39.5
2018-06-12T05:06:25.929Z,39.5
2018-06-12T05:07:15.981Z,39.6
2018-06-12T05:08:05.578Z,39.5
2018-06-12T05:08:55.295Z,39.5
2018-06-12T05:09:45.883Z,39.6
2018-06-12T05:10:36.925Z,39.6
2018-06-12T05:11:25.491Z,39.6
2018-06-12T05:12:15.840Z,39.6
2018-06-12T05:13:05.914Z,39.6
2018-06-12T05:13:56.547Z,39.6
2018-06-12T05:14:46.590Z,39.7
2018-06-12T05:15:35.798Z,39.6
2018-06-12T05:16:26.376Z,39.7
2018-06-12T05:17:16.498Z,39.7
2018-06-12T05:18:06.267Z,39.7
2018-06-12T05:18:56.882Z,39.7
2018-06-12T05:19:47.988Z,39.8
2018-06-12T05:20:36.431Z,39.7
2018-06-12T05:21:26.767Z,39.7
2018-06-12T05:22:16.907Z,39.7
2018-06-12T05:23:06.677Z,39.6
2018-06-12T05:23:56.967Z,39.6
2018-06-12T05:24:47.090Z,39.6
2018-06-12T05:25:36.143Z,39.6
2018-06-12T05:26:27.191Z,39.6
2018-06-12T05:27:17.609Z,39.6
2018-06-12T05:28:06.771Z,39.6
2018-06-12T05:28:57.707Z,39.6
2018-06-12T05:29:47.735Z,39.6
2018-06-12T05:30:37.781Z,39.6
2018-06-12T05:31:27.099Z,39.6
2018-06-12T05:32:16.096Z,39.7
2018-06-12T05:33:07.486Z,39.7
2018-06-12T05:33:57.401Z,39.8
2018-06-12T05:34:47.701Z,39.8
2018-06-12T05:35:37.465Z,39.8
2018-06-12T05:36:27.983Z,39.8
2018-06-12T05:37:17.277Z,32
2018-06-12T05:38:07.210Z,33.4
2018-06-12T05:38:57.931Z,35.8
2018-06-12T05:39:47.409Z,36.4
2018-06-12T05:40:38.871Z,36.6
2018-06-12T05:41:28.136Z,36.6
2018-06-12T05:42:18.446Z,36.5
2018-06-12T05:43:08.185Z,36.4
2018-06-12T05:43:59.115Z,36.4
2018-06-12T05:44:48.373Z,36.6
2018-06-12T05:45:38.405Z,36.7
2018-06-12T05:46:29.299Z,36.9
2018-06-12T05:47:19.368Z,37.1
2018-06-12T05:48:09.148Z,37.2
2018-06-12T05:48:58.396Z,37.4
2018-06-12T05:49:49.270Z,37.5
2018-06-12T05:50:38.547Z,37.6
2018-06-12T05:51:29.728Z,37.8
2018-06-12T05:52:19.502Z,37.9
2018-06-12T05:53:09.295Z,37.9
2018-06-12T05:53:59.339Z,38.1
2018-06-12T05:54:49.644Z,38.1
2018-06-12T05:55:40.153Z,36.7
2018-06-12T05:56:30.123Z,37.5
2018-06-12T05:57:19.882Z,39.9
2018-06-12T05:58:10.201Z,40
2018-06-12T05:58:59.733Z,39.4
2018-06-12T05:59:49.767Z,38.9
2018-06-12T06:00:40.355Z,38.9
2018-06-12T06:01:29.678Z,39.3
2018-06-12T06:02:19.942Z,39.9
2018-06-12T06:03:10.597Z,40.4
2018-06-12T06:04:00.385Z,40.8
2018-06-12T06:04:50.161Z,40.9
2018-06-12T06:05:40.767Z,41.1
2018-06-12T06:06:30.615Z,41.2
2018-06-12T06:07:20.414Z,41.3
2018-06-12T06:08:10.687Z,41.5
2018-06-12T06:09:00.215Z,41.8
2018-06-12T06:09:50.793Z,41.9
2018-06-12T06:10:41.937Z,42.1
2018-06-12T06:11:31.217Z,42.2
2018-06-12T06:12:21.311Z,42.3
2018-06-12T06:13:11.070Z,42.4
2018-06-12T06:14:00.561Z,42.6
2018-06-12T06:14:50.936Z,42.7
2018-06-12T06:15:40.695Z,42.8
2018-06-12T06:16:31.351Z,43
2018-06-12T06:17:20.602Z,43.1
2018-06-12T06:18:11.493Z,43.3
2018-06-12T06:19:00.712Z,43.4
2018-06-12T06:19:51.872Z,43.5
2018-06-12T06:20:41.666Z,43.6
2018-06-12T06:21:31.764Z,43.8
2018-06-12T06:22:21.301Z,43.9
2018-06-12T06:23:11.333Z,44
2018-06-12T06:24:01.985Z,44.1
2018-06-12T06:24:50.947Z,44.3
2018-06-12T06:25:41.469Z,44.4
2018-06-12T06:26:31.562Z,44.4
2018-06-12T06:27:22.504Z,44.6
2018-06-12T06:28:11.426Z,44.8
2018-06-12T06:29:02.008Z,44.8
2018-06-12T06:29:52.213Z,45
2018-06-12T06:30:42.157Z,45.1
2018-06-12T06:31:32.573Z,45.2
2018-06-12T06:32:22.567Z,45.3
2018-06-12T06:33:11.878Z,45.4
2018-06-12T06:34:02.474Z,45.5
2018-06-12T06:34:52.748Z,45.6
2018-06-12T06:35:43.082Z,45.7
2018-06-12T06:36:33.176Z,45.8
2018-06-12T06:37:22.395Z,45.9
2018-06-12T06:38:12.478Z,46
2018-06-12T06:39:02.839Z,46.1
2018-06-12T06:39:52.890Z,46.3
2018-06-12T06:40:43.255Z,46.4
2018-06-12T06:41:33.579Z,46.5
2018-06-12T06:42:23.336Z,46.6
2018-06-12T06:43:13.166Z,46.7
2018-06-12T06:44:03.765Z,46.8
2018-06-12T06:44:53.492Z,46.9
2018-06-12T06:45:43.336Z,47.1
2018-06-12T06:46:33.927Z,47.2
2018-06-12T06:47:23.790Z,47.3
2018-06-12T06:48:13.507Z,47.4
2018-06-12T06:49:03.292Z,47.5
2018-06-12T06:49:53.734Z,47.6
2018-06-12T06:50:43.726Z,47.7
2018-06-12T06:51:34.100Z,47.8
2018-06-12T06:52:23.914Z,47.9
2018-06-12T06:53:13.934Z,48
2018-06-12T06:54:04.234Z,48.1
2018-06-12T06:54:54.299Z,48.3
2018-06-12T06:55:44.137Z,48.4
2018-06-12T06:56:34.482Z,48.4
2018-06-12T06:57:24.269Z,48.6
2018-06-12T06:58:14.563Z,48.7
2018-06-12T06:59:04.440Z,48.8
2018-06-12T06:59:54.008Z,48.9
2018-06-12T07:00:44.558Z,49
2018-06-12T07:01:34.112Z,49.1
2018-06-12T07:02:23.576Z,49.2
2018-06-12T07:03:13.959Z,49.3
2018-06-12T07:04:04.490Z,49.4
2018-06-12T07:04:54.026Z,49.5
2018-06-12T07:05:44.384Z,49.6
2018-06-12T07:06:34.941Z,49.8
2018-06-12T07:07:25.266Z,49.9
2018-06-12T07:08:15.583Z,50
2018-06-12T07:09:05.206Z,50.1
2018-06-12T07:09:55.474Z,50.3
2018-06-12T07:10:45.585Z,50.4
2018-06-12T07:11:35.406Z,50.5
2018-06-12T07:12:24.881Z,50.6
2018-06-12T07:13:14.937Z,50.8
2018-06-12T07:14:05.789Z,50.8
2018-06-12T07:14:56.656Z,50.9
2018-06-12T07:15:45.981Z,51.1
2018-06-12T07:16:36.269Z,51.1
2018-06-12T07:17:25.589Z,51.3
2018-06-12T07:18:15.895Z,51.3
2018-06-12T07:19:06.161Z,51.4
2018-06-12T07:19:56.236Z,51.6
2018-06-12T07:20:46.318Z,51.7
2018-06-12T07:21:35.563Z,51.8
2018-06-12T07:23:15.725Z,52.1
2018-06-12T07:24:06.383Z,52.2
2018-06-12T07:24:56.141Z,52.3
2018-06-12T07:25:46.706Z,52.4
2018-06-12T07:26:36.773Z,52.6
2018-06-12T07:27:25.741Z,52.7
2018-06-12T07:28:16.307Z,52.8
2018-06-12T07:29:06.688Z,52.9
2018-06-12T07:29:56.450Z,53.1
2018-06-12T07:30:47.376Z,53.2
2018-06-12T07:31:37.430Z,53.3
2018-06-12T07:32:27.899Z,53.4
2018-06-12T07:33:16.561Z,53.6
2018-06-12T07:34:07.658Z,53.7
2018-06-12T07:34:57.469Z,53.8
2018-06-12T07:35:47.828Z,53.9
2018-06-12T07:36:37.569Z,54.1
2018-06-12T07:37:27.849Z,54.2
2018-06-12T07:38:16.641Z,54.3
2018-06-12T07:39:07.755Z,54.4
2018-06-12T07:39:57.531Z,54.5
2018-06-12T07:40:47.610Z,54.7
2018-06-12T07:41:38.244Z,54.8
2018-06-12T07:42:27.716Z,54.9
2018-06-12T07:43:18.384Z,55.1
2018-06-12T07:44:07.857Z,55.2
2018-06-12T07:44:58.509Z,55.3
